sensor_id;sensor_type;location;lat;lon;timestamp;pressure;altitude;pressure_sealevel;temperature;humidity
37892;BME280;45797;47.466;9.486;2024-03-23T00:54:32;95365.75;;;13.72;57.19
37892;BME280;45797;47.466;9.486;2024-03-23T00:59:57;95357.75;;;13.74;57.32
37892;BME280;45797;47.466;9.486;2024-03-23T01:05:21;95359.41;;;13.75;57.03
37892;BME280;45797;47.466;9.486;2024-03-23T01:10:54;95342.06;;;13.72;57.45
37892;BME280;45797;47.466;9.486;2024-03-23T01:16:31;95328.06;;;13.72;57.12
37892;BME280;45797;47.466;9.486;2024-03-23T01:21:55;95330.31;;;13.77;57.22
37892;BME280;45797;47.466;9.486;2024-03-23T01:27:17;95322.78;;;13.82;56.93
37892;BME280;45797;47.466;9.486;2024-03-23T01:32:39;95328.63;;;13.85;56.90
37892;BME280;45797;47.466;9.486;2024-03-23T01:38:00;95334.72;;;13.86;56.93
37892;BME280;45797;47.466;9.486;2024-03-23T01:43:26;95331.78;;;13.89;56.99
37892;BME280;45797;47.466;9.486;2024-03-23T01:49:10;95323.88;;;13.89;57.11
37892;BME280;45797;47.466;9.486;2024-03-23T01:54:33;95318.44;;;14.00;56.79
37892;BME280;45797;47.466;9.486;2024-03-23T02:00:06;95310.66;;;14.08;56.74
37892;BME280;45797;47.466;9.486;2024-03-23T02:05:33;95292.03;;;14.19;56.24
37892;BME280;45797;47.466;9.486;2024-03-23T02:10:56;95302.38;;;14.30;55.94
37892;BME280;45797;47.466;9.486;2024-03-23T02:16:22;95283.06;;;14.40;55.94
37892;BME280;45797;47.466;9.486;2024-03-23T02:21:43;95269.88;;;14.49;55.74
37892;BME280;45797;47.466;9.486;2024-03-23T02:27:05;95266.81;;;14.54;55.73
37892;BME280;45797;47.466;9.486;2024-03-23T02:32:25;95256.50;;;14.61;55.53
37892;BME280;45797;47.466;9.486;2024-03-23T02:37:58;95257.34;;;14.61;55.38
37892;BME280;45797;47.466;9.486;2024-03-23T02:43:20;95239.66;;;14.71;55.28
37892;BME280;45797;47.466;9.486;2024-03-23T02:48:48;95223.59;;;14.82;54.98
37892;BME280;45797;47.466;9.486;2024-03-23T02:54:11;95213.28;;;14.89;55.36
37892;BME280;45797;47.466;9.486;2024-03-23T02:59:34;95203.25;;;14.93;54.83
37892;BME280;45797;47.466;9.486;2024-03-23T03:05:05;95201.59;;;14.92;54.96
37892;BME280;45797;47.466;9.486;2024-03-23T03:10:30;95197.31;;;14.91;55.23
37892;BME280;45797;47.466;9.486;2024-03-23T03:15:54;95183.28;;;14.90;55.22
37892;BME280;45797;47.466;9.486;2024-03-23T03:21:32;95171.09;;;14.89;54.90
37892;BME280;45797;47.466;9.486;2024-03-23T03:26:53;95160.66;;;14.88;55.16
37892;BME280;45797;47.466;9.486;2024-03-23T03:32:13;95147.81;;;14.84;55.06
37892;BME280;45797;47.466;9.486;2024-03-23T03:37:34;95137.56;;;14.81;55.28
37892;BME280;45797;47.466;9.486;2024-03-23T03:42:55;95142.19;;;14.79;55.19
37892;BME280;45797;47.466;9.486;2024-03-23T03:48:19;95130.09;;;14.77;55.21
37892;BME280;45797;47.466;9.486;2024-03-23T03:53:41;95124.63;;;14.70;55.45
37892;BME280;45797;47.466;9.486;2024-03-23T03:59:05;95124.47;;;14.72;55.47
37892;BME280;45797;47.466;9.486;2024-03-23T04:04:25;95129.66;;;14.81;55.08
37892;BME280;45797;47.466;9.486;2024-03-23T04:09:47;95115.72;;;14.89;54.76
37892;BME280;45797;47.466;9.486;2024-03-23T04:15:07;95112.75;;;14.92;54.61
37892;BME280;45797;47.466;9.486;2024-03-23T04:20:29;95110.13;;;14.92;54.36
37892;BME280;45797;47.466;9.486;2024-03-23T04:26:03;95103.34;;;14.90;54.26
37892;BME280;45797;47.466;9.486;2024-03-23T04:31:27;95101.84;;;14.87;54.54
37892;BME280;45797;47.466;9.486;2024-03-23T04:36:48;95100.50;;;14.83;54.29
37892;BME280;45797;47.466;9.486;2024-03-23T04:42:11;95096.66;;;14.77;54.35
37892;BME280;45797;47.466;9.486;2024-03-23T04:47:33;95080.16;;;14.75;54.80
37892;BME280;45797;47.466;9.486;2024-03-23T04:52:57;95075.22;;;14.72;55.08
37892;BME280;45797;47.466;9.486;2024-03-23T04:58:18;95075.22;;;14.72;54.74
37892;BME280;45797;47.466;9.486;2024-03-23T05:09:37;95054.47;;;14.77;55.36
37892;BME280;45797;47.466;9.486;2024-03-23T05:14:58;95033.34;;;14.69;56.30
37892;BME280;45797;47.466;9.486;2024-03-23T05:20:19;95032.53;;;14.69;55.60
37892;BME280;45797;47.466;9.486;2024-03-23T05:25:40;95008.94;;;14.67;55.33
37892;BME280;45797;47.466;9.486;2024-03-23T05:31:03;94995.31;;;14.72;55.35
37892;BME280;45797;47.466;9.486;2024-03-23T05:36:24;94991.19;;;14.77;55.21
37892;BME280;45797;47.466;9.486;2024-03-23T05:41:45;94971.13;;;14.84;55.01
37892;BME280;45797;47.466;9.486;2024-03-23T05:47:08;94949.44;;;14.91;54.46
37892;BME280;45797;47.466;9.486;2024-03-23T05:52:28;94951.94;;;15.00;53.92
37892;BME280;45797;47.466;9.486;2024-03-23T05:58:00;94942.59;;;15.14;54.09
37892;BME280;45797;47.466;9.486;2024-03-23T06:03:21;94955.97;;;15.21;53.65
37892;BME280;45797;47.466;9.486;2024-03-23T06:08:49;94992.44;;;15.33;53.21
37892;BME280;45797;47.466;9.486;2024-03-23T06:14:23;95073.63;;;15.39;53.46
37892;BME280;45797;47.466;9.486;2024-03-23T06:19:45;95092.69;;;15.25;54.13
37892;BME280;45797;47.466;9.486;2024-03-23T06:25:06;95119.28;;;15.06;54.14
37892;BME280;45797;47.466;9.486;2024-03-23T06:30:26;95119.78;;;14.83;55.04
37892;BME280;45797;47.466;9.486;2024-03-23T06:35:59;95131.25;;;14.56;55.75
37892;BME280;45797;47.466;9.486;2024-03-23T06:41:21;95149.97;;;14.36;56.49
37892;BME280;45797;47.466;9.486;2024-03-23T06:46:52;95228.53;;;13.95;57.84
37892;BME280;45797;47.466;9.486;2024-03-23T06:52:38;95221.28;;;12.84;60.68
37892;BME280;45797;47.466;9.486;2024-03-23T06:57:59;95228.75;;;12.10;63.14
37892;BME280;45797;47.466;9.486;2024-03-23T07:03:25;95246.69;;;11.74;64.15
37892;BME280;45797;47.466;9.486;2024-03-23T07:08:52;95244.56;;;11.58;64.91
37892;BME280;45797;47.466;9.486;2024-03-23T07:14:17;95234.31;;;11.55;65.38
37892;BME280;45797;47.466;9.486;2024-03-23T07:19:46;95240.47;;;11.44;65.36
37892;BME280;45797;47.466;9.486;2024-03-23T07:25:08;95247.22;;;11.37;66.17
37892;BME280;45797;47.466;9.486;2024-03-23T07:30:29;95286.50;;;11.16;66.69
37892;BME280;45797;47.466;9.486;2024-03-23T07:35:50;95293.66;;;10.94;67.77
37892;BME280;45797;47.466;9.486;2024-03-23T07:41:16;95309.81;;;10.67;68.18
37892;BME280;45797;47.466;9.486;2024-03-23T07:46:40;95297.09;;;10.51;68.80
37892;BME280;45797;47.466;9.486;2024-03-23T07:52:03;95295.84;;;10.34;69.07
37892;BME280;45797;47.466;9.486;2024-03-23T07:57:27;95320.84;;;10.27;69.48
37892;BME280;45797;47.466;9.486;2024-03-23T08:09:09;95366.28;;;10.26;69.72
37892;BME280;45797;47.466;9.486;2024-03-23T08:14:31;95362.00;;;10.25;70.46
37892;BME280;45797;47.466;9.486;2024-03-23T08:20:03;95383.91;;;10.24;70.54
37892;BME280;45797;47.466;9.486;2024-03-23T08:25:25;95383.75;;;10.14;70.67
37892;BME280;45797;47.466;9.486;2024-03-23T08:30:49;95362.31;;;10.09;71.10
37892;BME280;45797;47.466;9.486;2024-03-23T08:36:11;95382.31;;;10.10;71.69
37892;BME280;45797;47.466;9.486;2024-03-23T08:41:39;95389.31;;;10.10;71.23
37892;BME280;45797;47.466;9.486;2024-03-23T08:47:00;95403.69;;;10.04;71.90
37892;BME280;45797;47.466;9.486;2024-03-23T08:52:24;95415.72;;;9.95;72.05
37892;BME280;45797;47.466;9.486;2024-03-23T08:57:47;95446.50;;;9.92;71.83
37892;BME280;45797;47.466;9.486;2024-03-23T09:03:19;95459.97;;;9.74;72.37
37892;BME280;45797;47.466;9.486;2024-03-23T09:08:40;95461.50;;;9.66;72.95
37892;BME280;45797;47.466;9.486;2024-03-23T09:14:01;95481.09;;;9.60;72.89
37892;BME280;45797;47.466;9.486;2024-03-23T09:19:33;95496.28;;;9.55;72.99
37892;BME280;45797;47.466;9.486;2024-03-23T09:24:57;95532.00;;;9.43;73.36
37892;BME280;45797;47.466;9.486;2024-03-23T09:30:18;95562.88;;;9.26;73.87
37892;BME280;45797;47.466;9.486;2024-03-23T09:35:42;95587.19;;;9.02;74.29
37892;BME280;45797;47.466;9.486;2024-03-23T09:41:07;95556.56;;;8.79;74.37
37892;BME280;45797;47.466;9.486;2024-03-23T09:46:31;95576.44;;;8.69;74.44
37892;BME280;45797;47.466;9.486;2024-03-23T09:51:56;95589.28;;;8.72;74.25
37892;BME280;45797;47.466;9.486;2024-03-23T09:57:18;95599.81;;;8.57;74.54
37892;BME280;45797;47.466;9.486;2024-03-23T10:02:38;95582.50;;;8.44;74.70
37892;BME280;45797;47.466;9.486;2024-03-23T10:08:19;95596.50;;;8.28;75.04
37892;BME280;45797;47.466;9.486;2024-03-23T10:13:42;95594.75;;;8.29;74.90
37892;BME280;45797;47.466;9.486;2024-03-23T10:19:05;95614.88;;;8.27;74.93
37892;BME280;45797;47.466;9.486;2024-03-23T10:24:27;95627.69;;;8.17;75.29
37892;BME280;45797;47.466;9.486;2024-03-23T10:30:23;95631.72;;;8.09;74.84
37892;BME280;45797;47.466;9.486;2024-03-23T10:35:47;95601.09;;;8.25;74.34
37892;BME280;45797;47.466;9.486;2024-03-23T10:41:09;95613.69;;;8.45;74.01
37892;BME280;45797;47.466;9.486;2024-03-23T10:46:33;95595.31;;;8.59;73.49
37892;BME280;45797;47.466;9.486;2024-03-23T10:52:05;95571.75;;;8.74;73.23
37892;BME280;45797;47.466;9.486;2024-03-23T10:57:36;95596.91;;;9.00;72.58
37892;BME280;45797;47.466;9.486;2024-03-23T11:09:01;95598.69;;;9.49;70.78
37892;BME280;45797;47.466;9.486;2024-03-23T11:14:32;95563.59;;;9.64;70.83
37892;BME280;45797;47.466;9.486;2024-03-23T11:25:23;95568.44;;;9.82;70.27
37892;BME280;45797;47.466;9.486;2024-03-23T11:30:48;95570.44;;;10.02;69.89
37892;BME280;45797;47.466;9.486;2024-03-23T11:36:27;95561.00;;;10.58;68.65
37892;BME280;45797;47.466;9.486;2024-03-23T11:41:52;95556.84;;;10.78;67.96
37892;BME280;45797;47.466;9.486;2024-03-23T11:47:13;95553.44;;;10.32;69.32
37892;BME280;45797;47.466;9.486;2024-03-23T11:52:35;95546.16;;;10.00;69.41
37892;BME280;45797;47.466;9.486;2024-03-23T11:57:57;95552.47;;;9.97;69.59
37892;BME280;45797;47.466;9.486;2024-03-23T12:03:20;95548.59;;;10.14;69.52
37892;BME280;45797;47.466;9.486;2024-03-23T12:08:53;95551.97;;;10.63;68.19
37892;BME280;45797;47.466;9.486;2024-03-23T12:14:15;95539.94;;;11.05;66.65
37892;BME280;45797;47.466;9.486;2024-03-23T12:19:38;95553.50;;;10.99;66.43
37892;BME280;45797;47.466;9.486;2024-03-23T12:24:59;95572.94;;;11.07;66.80
37892;BME280;45797;47.466;9.486;2024-03-23T12:30:23;95563.16;;;11.43;66.23
37892;BME280;45797;47.466;9.486;2024-03-23T12:35:43;95576.59;;;11.61;65.44
37892;BME280;45797;47.466;9.486;2024-03-23T12:41:14;95558.72;;;11.66;65.52
37892;BME280;45797;47.466;9.486;2024-03-23T12:46:38;95555.44;;;11.73;65.10
37892;BME280;45797;47.466;9.486;2024-03-23T12:52:07;95517.47;;;11.45;65.76
37892;BME280;45797;47.466;9.486;2024-03-23T12:57:28;95546.38;;;11.12;66.08
37892;BME280;45797;47.466;9.486;2024-03-23T13:02:54;95516.38;;;10.94;66.48
37892;BME280;45797;47.466;9.486;2024-03-23T13:08:21;95521.63;;;10.94;66.22
37892;BME280;45797;47.466;9.486;2024-03-23T13:13:48;95511.19;;;11.37;65.08
37892;BME280;45797;47.466;9.486;2024-03-23T13:19:09;95515.88;;;11.77;63.81
37892;BME280;45797;47.466;9.486;2024-03-23T13:24:30;95538.75;;;11.31;64.01
37892;BME280;45797;47.466;9.486;2024-03-23T13:29:52;95538.41;;;11.02;64.47
37892;BME280;45797;47.466;9.486;2024-03-23T13:35:13;95547.81;;;10.82;64.19
37892;BME280;45797;47.466;9.486;2024-03-23T13:40:52;95545.06;;;10.84;64.04
37892;BME280;45797;47.466;9.486;2024-03-23T13:46:13;95545.91;;;10.62;64.23
37892;BME280;45797;47.466;9.486;2024-03-23T13:51:34;95551.56;;;10.34;64.76
37892;BME280;45797;47.466;9.486;2024-03-23T13:56:56;95546.91;;;10.37;64.45
37892;BME280;45797;47.466;9.486;2024-03-23T14:02:18;95539.22;;;10.69;63.40
37892;BME280;45797;47.466;9.486;2024-03-23T14:07:48;95513.56;;;11.40;61.99
37892;BME280;45797;47.466;9.486;2024-03-23T14:13:15;95512.41;;;11.87;61.26
37892;BME280;45797;47.466;9.486;2024-03-23T14:18:36;95505.72;;;11.83;61.13
37892;BME280;45797;47.466;9.486;2024-03-23T14:23:57;95507.00;;;11.57;61.58
37892;BME280;45797;47.466;9.486;2024-03-23T14:29:20;95495.56;;;11.47;62.01
37892;BME280;45797;47.466;9.486;2024-03-23T14:35:06;95503.22;;;11.38;61.82
37892;BME280;45797;47.466;9.486;2024-03-23T14:40:35;95510.06;;;10.96;62.02
37892;BME280;45797;47.466;9.486;2024-03-23T14:51:41;95500.16;;;10.55;63.03
37892;BME280;45797;47.466;9.486;2024-03-23T14:57:03;95486.94;;;10.68;62.21
37892;BME280;45797;47.466;9.486;2024-03-23T15:02:24;95469.94;;;10.84;61.59
37892;BME280;45797;47.466;9.486;2024-03-23T15:07:46;95460.81;;;11.22;61.01
37892;BME280;45797;47.466;9.486;2024-03-23T15:13:08;95452.66;;;11.48;60.24
37892;BME280;45797;47.466;9.486;2024-03-23T15:18:38;95447.66;;;11.65;60.12
37892;BME280;45797;47.466;9.486;2024-03-23T15:23:59;95461.94;;;11.84;60.12
37892;BME280;45797;47.466;9.486;2024-03-23T15:29:21;95438.19;;;12.27;59.07
37892;BME280;45797;47.466;9.486;2024-03-23T15:34:45;95444.38;;;12.47;58.39
37892;BME280;45797;47.466;9.486;2024-03-23T15:40:10;95449.31;;;12.40;58.15
37892;BME280;45797;47.466;9.486;2024-03-23T15:45:41;95447.41;;;12.42;58.58
37892;BME280;45797;47.466;9.486;2024-03-23T15:51:03;95443.03;;;12.52;57.86
37892;BME280;45797;47.466;9.486;2024-03-23T15:56:24;95446.34;;;12.54;57.64
37892;BME280;45797;47.466;9.486;2024-03-23T16:01:46;95432.03;;;12.38;58.01
37892;BME280;45797;47.466;9.486;2024-03-23T16:07:07;95425.25;;;12.35;58.00
37892;BME280;45797;47.466;9.486;2024-03-23T16:12:29;95432.31;;;11.93;57.54
37892;BME280;45797;47.466;9.486;2024-03-23T16:17:50;95426.56;;;11.35;58.38
37892;BME280;45797;47.466;9.486;2024-03-23T16:23:11;95414.16;;;11.37;58.60
37892;BME280;45797;47.466;9.486;2024-03-23T16:28:33;95415.91;;;11.15;58.80
37892;BME280;45797;47.466;9.486;2024-03-23T16:39:49;95421.13;;;10.61;59.49
37892;BME280;45797;47.466;9.486;2024-03-23T16:45:12;95415.56;;;10.43;59.73
37892;BME280;45797;47.466;9.486;2024-03-23T16:50:35;95426.75;;;10.34;60.01
37892;BME280;45797;47.466;9.486;2024-03-23T16:56:00;95436.78;;;10.16;59.90
37892;BME280;45797;47.466;9.486;2024-03-23T17:01:30;95439.84;;;9.99;59.75
37892;BME280;45797;47.466;9.486;2024-03-23T17:06:50;95440.53;;;9.90;60.23
37892;BME280;45797;47.466;9.486;2024-03-23T17:12:24;95441.09;;;9.71;59.89
37892;BME280;45797;47.466;9.486;2024-03-23T17:18:01;95444.47;;;9.49;60.14
37892;BME280;45797;47.466;9.486;2024-03-23T17:23:28;95444.34;;;9.27;60.30
37892;BME280;45797;47.466;9.486;2024-03-23T17:28:51;95456.13;;;9.08;60.56
37892;BME280;45797;47.466;9.486;2024-03-23T17:34:24;95449.81;;;8.87;61.44
37892;BME280;45797;47.466;9.486;2024-03-23T17:39:45;95434.31;;;8.73;61.18
37892;BME280;45797;47.466;9.486;2024-03-23T17:45:09;95443.94;;;8.59;61.48
37892;BME280;45797;47.466;9.486;2024-03-23T17:50:32;95448.94;;;8.50;61.56
37892;BME280;45797;47.466;9.486;2024-03-23T17:55:53;95446.25;;;8.39;61.50
37892;BME280;45797;47.466;9.486;2024-03-23T18:01:19;95458.13;;;8.30;61.43
37892;BME280;45797;47.466;9.486;2024-03-23T18:07:09;95469.19;;;8.21;61.74
37892;BME280;45797;47.466;9.486;2024-03-23T18:12:31;95463.97;;;8.21;62.14
37892;BME280;45797;47.466;9.486;2024-03-23T18:17:54;95470.34;;;8.17;61.52
37892;BME280;45797;47.466;9.486;2024-03-23T18:23:15;95474.50;;;8.19;61.59
37892;BME280;45797;47.466;9.486;2024-03-23T18:28:39;95482.97;;;8.23;61.55
37892;BME280;45797;47.466;9.486;2024-03-23T18:34:19;95496.66;;;8.26;61.43
37892;BME280;45797;47.466;9.486;2024-03-23T18:39:51;95507.91;;;8.27;61.34
37892;BME280;45797;47.466;9.486;2024-03-23T18:45:19;95540.88;;;8.28;60.79
37892;BME280;45797;47.466;9.486;2024-03-23T18:50:42;95604.38;;;8.01;61.51
37892;BME280;45797;47.466;9.486;2024-03-23T18:56:04;95578.63;;;7.29;63.29
37892;BME280;45797;47.466;9.486;2024-03-23T19:01:25;95609.34;;;6.95;64.18
37892;BME280;45797;47.466;9.486;2024-03-23T19:06:57;95591.03;;;6.54;64.55
37892;BME280;45797;47.466;9.486;2024-03-23T19:12:18;95586.13;;;6.19;65.41
37892;BME280;45797;47.466;9.486;2024-03-23T19:17:42;95585.00;;;6.09;66.08
37892;BME280;45797;47.466;9.486;2024-03-23T19:23:05;95573.91;;;6.06;66.44
37892;BME280;45797;47.466;9.486;2024-03-23T19:28:27;95576.53;;;6.06;66.57
37892;BME280;45797;47.466;9.486;2024-03-23T19:34:06;95588.69;;;6.05;66.51
37892;BME280;45797;47.466;9.486;2024-03-23T19:39:31;95577.72;;;6.00;66.89
37892;BME280;45797;47.466;9.486;2024-03-23T19:44:53;95585.13;;;5.92;66.80
37892;BME280;45797;47.466;9.486;2024-03-23T19:50:16;95639.34;;;5.82;67.01
37892;BME280;45797;47.466;9.486;2024-03-23T19:55:37;95633.41;;;5.64;67.68
37892;BME280;45797;47.466;9.486;2024-03-23T20:01:04;95605.69;;;5.33;68.49
37892;BME280;45797;47.466;9.486;2024-03-23T20:06:26;95576.47;;;5.14;69.02
37892;BME280;45797;47.466;9.486;2024-03-23T20:11:47;95562.06;;;5.08;68.79
37892;BME280;45797;47.466;9.486;2024-03-23T20:17:10;95570.19;;;5.02;69.09
37892;BME280;45797;47.466;9.486;2024-03-23T20:22:37;95560.13;;;4.96;69.62
37892;BME280;45797;47.466;9.486;2024-03-23T20:27:57;95572.50;;;4.91;69.78
37892;BME280;45797;47.466;9.486;2024-03-23T20:39:11;95563.72;;;4.78;69.90
37892;BME280;45797;47.466;9.486;2024-03-23T20:44:33;95560.38;;;4.76;70.07
37892;BME280;45797;47.466;9.486;2024-03-23T20:49:55;95557.78;;;4.76;70.25
37892;BME280;45797;47.466;9.486;2024-03-23T20:55:18;95553.41;;;4.76;70.09
37892;BME280;45797;47.466;9.486;2024-03-23T21:07:15;95546.66;;;4.74;69.99
37892;BME280;45797;47.466;9.486;2024-03-23T21:18:32;95526.97;;;4.85;70.29
37892;BME280;45797;47.466;9.486;2024-03-23T21:23:58;95525.66;;;4.94;70.24
37892;BME280;45797;47.466;9.486;2024-03-23T21:29:20;95534.34;;;5.09;69.97
37892;BME280;45797;47.466;9.486;2024-03-23T21:34:42;95503.44;;;5.20;69.67
37892;BME280;45797;47.466;9.486;2024-03-23T21:40:05;95510.97;;;5.25;69.65
37892;BME280;45797;47.466;9.486;2024-03-23T21:45:32;95503.00;;;5.28;69.85
37892;BME280;45797;47.466;9.486;2024-03-23T21:50:59;95516.31;;;5.37;69.95
37892;BME280;45797;47.466;9.486;2024-03-23T21:56:46;95519.59;;;5.41;69.95
37892;BME280;45797;47.466;9.486;2024-03-23T22:02:13;95528.88;;;5.45;69.82
37892;BME280;45797;47.466;9.486;2024-03-23T22:07:33;95535.00;;;5.44;69.99
37892;BME280;45797;47.466;9.486;2024-03-23T22:12:54;95533.31;;;5.43;70.04
37892;BME280;45797;47.466;9.486;2024-03-23T22:18:25;95530.31;;;5.35;70.21
37892;BME280;45797;47.466;9.486;2024-03-23T22:23:56;95528.81;;;5.31;70.32
37892;BME280;45797;47.466;9.486;2024-03-23T22:29:16;95513.41;;;5.28;70.60
37892;BME280;45797;47.466;9.486;2024-03-23T22:34:38;95508.28;;;5.26;70.87
37892;BME280;45797;47.466;9.486;2024-03-23T22:40:01;95491.13;;;5.24;70.75
37892;BME280;45797;47.466;9.486;2024-03-23T22:45:31;95481.69;;;5.23;71.00
37892;BME280;45797;47.466;9.486;2024-03-23T22:51:17;95502.44;;;5.23;71.16
37892;BME280;45797;47.466;9.486;2024-03-23T22:56:37;95534.53;;;5.22;71.15
37892;BME280;45797;47.466;9.486;2024-03-23T23:01:58;95523.97;;;4.93;71.63
37892;BME280;45797;47.466;9.486;2024-03-23T23:07:23;95458.78;;;4.68;71.97
37892;BME280;45797;47.466;9.486;2024-03-23T23:12:45;95425.06;;;4.52;72.15
37892;BME280;45797;47.466;9.486;2024-03-23T23:18:06;95414.25;;;4.44;72.52
37892;BME280;45797;47.466;9.486;2024-03-23T23:23:29;95411.00;;;4.40;73.04
37892;BME280;45797;47.466;9.486;2024-03-23T23:28:58;95407.66;;;4.38;72.97
37892;BME280;45797;47.466;9.486;2024-03-23T23:34:19;95398.97;;;4.39;72.73
37892;BME280;45797;47.466;9.486;2024-03-23T23:39:39;95389.13;;;4.46;72.64
37892;BME280;45797;47.466;9.486;2024-03-23T23:45:07;95366.34;;;4.51;72.59
37892;BME280;45797;47.466;9.486;2024-03-23T23:50:40;95356.72;;;4.53;72.61
37892;BME280;45797;47.466;9.486;2024-03-23T23:56:04;95367.59;;;4.59;72.95
